Time;durP1;ratioP1;P1;durP2;ratioP2;P2;SDS_P1;SDS_P2;PMS_P1;PMS_P2;Temp;Humidity;BMP_temperature;BMP_pressure;BME280_temperature;BME280_humidity;BME280_pressure;Samples;Min_cycle;Max_cycle;Signal;HPM_P1;HPM_P2
2023/04/18 00:01:46;;;;;;;;;;;18.00;64.80;;;;;;4971043;28;850;-73
2023/04/18 00:04:12;;;;;;;;;;;18.00;64.80;;;;;;4970990;28;1811;-74
2023/04/18 00:06:37;;;;;;;;;;;18.00;64.80;;;;;;4970985;28;880;-74
2023/04/18 00:09:03;;;;;;;;;;;18.00;64.80;;;;;;4969436;28;1272;-74
2023/04/18 00:11:29;;;;;;;;;;;18.00;64.80;;;;;;4971119;28;1296;-74
2023/04/18 00:13:56;;;;;;;;;;;18.00;64.90;;;;;;4972014;28;853;-73
2023/04/18 00:16:22;;;;;;;;;;;18.00;64.90;;;;;;4972134;28;896;-73
2023/04/18 00:18:47;;;;;;;;;;;18.00;64.90;;;;;;4970510;28;1903;-74
2023/04/18 00:21:13;;;;;;;;;;;18.00;64.90;;;;;;4971026;28;868;-74
2023/04/18 00:23:38;;;;;;;;;;;18.00;64.90;;;;;;4970888;28;825;-74
2023/04/18 00:26:04;;;;;;;;;;;18.00;64.90;;;;;;4973546;28;938;-74
2023/04/18 00:28:29;;;;;;;;;;;18.00;64.90;;;;;;4974147;28;1275;-73
2023/04/18 00:30:54;;;;;;;;;;;18.00;65.00;;;;;;4974575;28;884;-73
2023/04/18 00:33:20;;;;;;;;;;;18.00;64.90;;;;;;4973207;28;1079;-73
2023/04/18 00:35:45;;;;;;;;;;;18.00;65.00;;;;;;4974592;28;844;-74
2023/04/18 00:38:11;;;;;;;;;;;18.00;65.00;;;;;;4973164;28;1970;-73
2023/04/18 00:40:37;;;;;;;;;;;18.00;65.80;;;;;;4974572;28;888;-74
2023/04/18 00:43:02;;;;;;;;;;;18.00;65.00;;;;;;4974409;28;809;-74
2023/04/18 00:45:28;;;;;;;;;;;18.00;65.00;;;;;;4974242;28;942;-74
2023/04/18 00:47:54;;;;;;;;;;;18.00;65.10;;;;;;4973892;28;827;-73
2023/04/18 00:50:19;;;;;;;;;;;18.00;65.00;;;;;;4974319;28;1297;-73
2023/04/18 00:52:45;;;;;;;;;;;18.00;65.10;;;;;;4974153;28;855;-73
2023/04/18 00:55:10;;;;;;;;;;;18.00;65.10;;;;;;4974236;28;817;-74
2023/04/18 00:57:36;;;;;;;;;;;18.00;65.10;;;;;;4972546;28;834;-73
2023/04/18 01:00:07;;;;;;;;;;;18.00;65.10;;;;;;4972032;28;1904;-73
2023/04/18 01:02:32;;;;;;;;;;;18.00;65.10;;;;;;4973198;28;919;-74
2023/04/18 01:04:58;;;;;;;;;;;18.00;65.10;;;;;;4974080;28;1030;-74
2023/04/18 01:07:24;;;;;;;;;;;18.00;65.10;;;;;;4972280;28;837;-73
2023/04/18 01:09:49;;;;;;;;;;;17.90;65.10;;;;;;4972719;28;1245;-74
2023/04/18 01:12:15;;;;;;;;;;;18.00;65.20;;;;;;4973100;28;1299;-74
2023/04/18 01:14:41;;;;;;;;;;;18.00;65.20;;;;;;4974006;28;805;-73
2023/04/18 01:17:09;;;;;;;;;;;18.00;65.20;;;;;;4973475;28;938;-74
2023/04/18 01:19:38;;;;;;;;;;;18.00;65.20;;;;;;4973312;28;1898;-73
2023/04/18 01:22:04;;;;;;;;;;;18.00;65.20;;;;;;4973365;28;905;-73
2023/04/18 01:24:30;;;;;;;;;;;18.00;65.20;;;;;;4973761;28;871;-73
2023/04/18 01:26:56;;;;;;;;;;;18.00;65.20;;;;;;4973520;28;832;-74
2023/04/18 01:29:21;;;;;;;;;;;18.00;65.20;;;;;;4973357;28;1418;-73
2023/04/18 01:31:47;;;;;;;;;;;18.00;65.20;;;;;;4971950;28;887;-73
2023/04/18 01:34:13;;;;;;;;;;;18.00;65.30;;;;;;4973601;28;868;-73
2023/04/18 01:36:39;;;;;;;;;;;18.00;65.30;;;;;;4972809;28;1471;-73
2023/04/18 01:39:05;;;;;;;;;;;18.00;66.00;;;;;;4971573;28;1978;-73
2023/04/18 01:41:31;;;;;;;;;;;18.00;65.30;;;;;;4973089;28;820;-74
2023/04/18 01:43:57;;;;;;;;;;;18.00;65.30;;;;;;4972515;28;917;-74
2023/04/18 01:46:22;;;;;;;;;;;18.00;65.30;;;;;;4973094;28;1314;-73
2023/04/18 01:48:48;;;;;;;;;;;18.00;65.30;;;;;;4973365;28;1360;-74
2023/04/18 01:51:13;;;;;;;;;;;17.90;65.30;;;;;;4973067;28;867;-74
2023/04/18 01:53:39;;;;;;;;;;;18.00;65.30;;;;;;4972880;28;896;-73
2023/04/18 01:56:04;;;;;;;;;;;17.90;65.30;;;;;;4973072;28;1030;-73
2023/04/18 01:58:30;;;;;;;;;;;17.90;65.30;;;;;;4971731;28;1964;-73
2023/04/18 02:00:56;;;;;;;;;;;17.90;65.30;;;;;;4974941;28;1348;-73
2023/04/18 02:03:22;;;;;;;;;;;17.90;65.30;;;;;;4976352;28;833;-73
2023/04/18 02:05:47;;;;;;;;;;;17.90;65.30;;;;;;4972682;28;959;-73
2023/04/18 02:08:13;;;;;;;;;;;17.90;65.30;;;;;;4972514;28;1409;-73
2023/04/18 02:10:38;;;;;;;;;;;17.90;65.40;;;;;;4971544;28;1493;-73
2023/04/18 02:13:05;;;;;;;;;;;17.90;65.30;;;;;;4984906;28;1201;-73
2023/04/18 02:15:31;;;;;;;;;;;17.90;65.40;;;;;;4971524;28;893;-73
2023/04/18 02:17:58;;;;;;;;;;;17.90;65.40;;;;;;4972398;28;852;-73
2023/04/18 02:20:25;;;;;;;;;;;17.90;65.40;;;;;;4972543;28;1906;-73
2023/04/18 02:22:50;;;;;;;;;;;17.90;65.40;;;;;;4972541;28;847;-73
2023/04/18 02:25:17;;;;;;;;;;;17.90;65.40;;;;;;4972596;28;828;-73
2023/04/18 02:27:43;;;;;;;;;;;17.90;65.40;;;;;;4972061;28;852;-74
2023/04/18 02:30:08;;;;;;;;;;;17.90;65.40;;;;;;4972218;28;1262;-73
2023/04/18 02:32:34;;;;;;;;;;;17.90;65.40;;;;;;4971005;28;968;-73
2023/04/18 02:34:59;;;;;;;;;;;17.90;65.40;;;;;;4972365;28;859;-73
2023/04/18 02:37:24;;;;;;;;;;;17.90;65.40;;;;;;4970716;28;1106;-73
2023/04/18 02:39:50;;;;;;;;;;;17.90;65.50;;;;;;4972125;28;1907;-73
2023/04/18 02:42:15;;;;;;;;;;;17.90;65.50;;;;;;4972327;28;876;-73
2023/04/18 02:44:41;;;;;;;;;;;17.90;65.50;;;;;;4972107;28;915;-74
2023/04/18 02:47:06;;;;;;;;;;;17.90;65.50;;;;;;4972277;28;871;-73
2023/04/18 02:49:32;;;;;;;;;;;17.90;65.50;;;;;;4971250;28;1254;-73
2023/04/18 02:51:57;;;;;;;;;;;17.90;65.50;;;;;;4961997;28;1391;-74
2023/04/18 02:54:23;;;;;;;;;;;17.90;65.50;;;;;;4972232;28;781;-74
2023/04/18 02:56:50;;;;;;;;;;;17.90;65.50;;;;;;4970583;28;1461;-74
2023/04/18 02:59:15;;;;;;;;;;;17.90;65.50;;;;;;4970825;28;1899;-74
2023/04/18 03:01:41;;;;;;;;;;;17.90;65.60;;;;;;4971830;28;997;-74
2023/04/18 03:04:06;;;;;;;;;;;17.90;65.50;;;;;;4971872;28;849;-74
2023/04/18 03:06:32;;;;;;;;;;;17.90;65.50;;;;;;4971911;28;876;-74
2023/04/18 03:08:57;;;;;;;;;;;17.90;65.60;;;;;;4971662;28;1357;-74
2023/04/18 03:11:23;;;;;;;;;;;17.90;65.60;;;;;;4972060;28;938;-73
2023/04/18 03:13:48;;;;;;;;;;;17.90;65.60;;;;;;4971761;28;949;-73
2023/04/18 03:16:14;;;;;;;;;;;17.90;65.60;;;;;;4971610;28;1055;-74
2023/04/18 03:18:39;;;;;;;;;;;17.90;65.60;;;;;;4971427;28;1972;-73
2023/04/18 03:21:06;;;;;;;;;;;17.90;65.60;;;;;;4971758;28;979;-74
2023/04/18 03:23:31;;;;;;;;;;;17.90;65.60;;;;;;4971584;28;884;-73
2023/04/18 03:25:56;;;;;;;;;;;17.90;66.40;;;;;;4971545;28;810;-73
2023/04/18 03:28:22;;;;;;;;;;;17.90;65.60;;;;;;4970503;28;1427;-72
2023/04/18 03:30:48;;;;;;;;;;;17.90;65.60;;;;;;4970815;28;1408;-74
2023/04/18 03:33:15;;;;;;;;;;;17.90;65.60;;;;;;4968274;28;1358;-74
2023/04/18 03:35:41;;;;;;;;;;;17.90;65.70;;;;;;4985459;28;1435;-73
2023/04/18 03:38:06;;;;;;;;;;;17.90;65.60;;;;;;4964281;28;1422;-72
2023/04/18 03:40:32;;;;;;;;;;;17.90;65.70;;;;;;4971326;28;1910;-74
2023/04/18 03:42:58;;;;;;;;;;;17.90;65.70;;;;;;4970733;28;1527;-73
2023/04/18 03:45:24;;;;;;;;;;;17.90;65.70;;;;;;4971925;28;1273;-74
2023/04/18 03:47:49;;;;;;;;;;;18.00;65.80;;;;;;4972361;28;1373;-73
2023/04/18 03:50:15;;;;;;;;;;;18.00;65.80;;;;;;4971472;28;1266;-73
2023/04/18 03:52:40;;;;;;;;;;;18.00;65.80;;;;;;4971182;28;1261;-73
2023/04/18 03:55:06;;;;;;;;;;;18.00;65.70;;;;;;4971919;28;1261;-73
2023/04/18 03:57:31;;;;;;;;;;;18.10;65.90;;;;;;4970412;28;1480;-73
2023/04/18 03:59:57;;;;;;;;;;;18.10;65.80;;;;;;4954295;28;1962;-73
2023/04/18 04:02:23;;;;;;;;;;;18.10;65.90;;;;;;4973512;28;1341;-74
2023/04/18 04:04:48;;;;;;;;;;;18.10;65.90;;;;;;4974315;28;1312;-73
2023/04/18 04:07:14;;;;;;;;;;;18.20;66.00;;;;;;4973863;28;1305;-73
2023/04/18 04:09:40;;;;;;;;;;;18.20;66.00;;;;;;4962537;28;1352;-73
2023/04/18 04:12:05;;;;;;;;;;;18.20;66.00;;;;;;4967745;28;1161;-73
2023/04/18 04:14:33;;;;;;;;;;;18.20;66.10;;;;;;4963389;28;1561;-73
2023/04/18 04:16:59;;;;;;;;;;;18.20;66.00;;;;;;4972562;28;1378;-73
2023/04/18 04:19:25;;;;;;;;;;;18.30;66.00;;;;;;4977238;28;1903;-73
2023/04/18 04:21:50;;;;;;;;;;;18.30;66.00;;;;;;4976459;28;1272;-73
2023/04/18 04:24:16;;;;;;;;;;;18.30;65.80;;;;;;4959035;28;1237;-73
2023/04/18 04:26:41;;;;;;;;;;;18.30;65.70;;;;;;4987677;28;1302;-73
2023/04/18 04:29:08;;;;;;;;;;;18.40;65.70;;;;;;4974089;28;1264;-73
2023/04/18 04:31:34;;;;;;;;;;;18.40;65.70;;;;;;4974414;28;832;-73
2023/04/18 04:34:02;;;;;;;;;;;18.40;65.70;;;;;;4974675;28;1074;-73
2023/04/18 04:36:27;;;;;;;;;;;18.40;65.60;;;;;;4973258;28;869;-73
2023/04/18 04:38:53;;;;;;;;;;;18.50;65.70;;;;;;4974023;28;1910;-72
2023/04/18 04:41:18;;;;;;;;;;;18.50;65.60;;;;;;4974268;28;820;-73
2023/04/18 04:43:45;;;;;;;;;;;18.50;65.60;;;;;;4974496;28;902;-74
2023/04/18 04:46:13;;;;;;;;;;;18.50;65.60;;;;;;4973328;28;900;-73
2023/04/18 04:48:39;;;;;;;;;;;18.60;65.80;;;;;;4973945;28;1375;-73
2023/04/18 04:51:04;;;;;;;;;;;18.70;66.30;;;;;;4974234;28;838;-74
2023/04/18 04:53:30;;;;;;;;;;;18.70;65.40;;;;;;4974142;28;887;-73
2023/04/18 04:55:55;;;;;;;;;;;18.80;65.10;;;;;;4974081;28;859;-73
2023/04/18 04:58:21;;;;;;;;;;;19.00;64.90;;;;;;4972609;28;1964;-73
2023/04/18 05:00:46;;;;;;;;;;;19.10;64.70;;;;;;4973989;28;868;-73
2023/04/18 05:03:12;;;;;;;;;;;19.20;64.30;;;;;;4974040;28;1103;-73
2023/04/18 05:05:37;;;;;;;;;;;19.40;64.10;;;;;;4974071;28;872;-73
2023/04/18 05:08:03;;;;;;;;;;;19.50;63.80;;;;;;4972556;28;848;-74
2023/04/18 05:10:29;;;;;;;;;;;19.50;63.40;;;;;;4972578;28;1417;-74
2023/04/18 05:12:55;;;;;;;;;;;19.60;63.20;;;;;;4961526;28;978;-73
2023/04/18 05:15:20;;;;;;;;;;;19.70;63.70;;;;;;4973932;28;923;-74
2023/04/18 05:17:45;;;;;;;;;;;19.80;62.80;;;;;;4974350;28;967;-74
2023/04/18 05:20:11;;;;;;;;;;;19.90;62.50;;;;;;4975386;28;1902;-74
2023/04/18 05:22:37;;;;;;;;;;;20.00;62.40;;;;;;4973138;28;904;-74
2023/04/18 05:25:02;;;;;;;;;;;20.00;62.10;;;;;;4973522;28;884;-74
2023/04/18 05:27:28;;;;;;;;;;;20.10;62.00;;;;;;4973621;28;859;-74
2023/04/18 05:29:53;;;;;;;;;;;20.20;61.80;;;;;;4973523;28;1323;-74
2023/04/18 05:32:19;;;;;;;;;;;20.20;61.70;;;;;;4972247;28;831;-74
2023/04/18 05:34:44;;;;;;;;;;;20.30;61.50;;;;;;4973430;28;862;-73
2023/04/18 05:37:10;;;;;;;;;;;20.30;61.40;;;;;;4973212;28;1459;-74
2023/04/18 05:39:35;;;;;;;;;;;20.30;61.40;;;;;;4973266;28;1906;-73
2023/04/18 05:42:01;;;;;;;;;;;20.30;61.20;;;;;;4973360;28;892;-73
2023/04/18 05:44:27;;;;;;;;;;;20.40;61.30;;;;;;4972161;28;840;-73
2023/04/18 05:46:53;;;;;;;;;;;20.40;61.20;;;;;;4973154;28;858;-73
2023/04/18 05:49:18;;;;;;;;;;;20.40;61.20;;;;;;4971980;28;1344;-73
2023/04/18 05:51:44;;;;;;;;;;;20.50;61.20;;;;;;4973138;28;1521;-73
2023/04/18 05:54:09;;;;;;;;;;;20.50;61.10;;;;;;4973057;28;884;-73
2023/04/18 05:56:35;;;;;;;;;;;20.50;61.10;;;;;;4973151;28;880;-73
2023/04/18 05:59:00;;;;;;;;;;;20.50;61.10;;;;;;4971589;28;2006;-73
2023/04/18 06:01:26;;;;;;;;;;;20.60;61.10;;;;;;4973226;28;896;-73
2023/04/18 06:03:52;;;;;;;;;;;20.60;61.00;;;;;;4973050;28;865;-73
2023/04/18 06:06:18;;;;;;;;;;;20.60;61.00;;;;;;4973019;28;1082;-73
2023/04/18 06:08:43;;;;;;;;;;;20.60;61.00;;;;;;4967451;28;2476;-74
2023/04/18 06:11:09;;;;;;;;;;;20.60;61.00;;;;;;4973486;28;2097;-75
2023/04/18 06:13:35;;;;;;;;;;;20.60;61.00;;;;;;4973366;28;1135;-76
2023/04/18 06:16:00;;;;;;;;;;;20.60;61.00;;;;;;4972554;28;869;-76
2023/04/18 06:18:25;;;;;;;;;;;20.60;61.00;;;;;;4971330;28;1966;-76
2023/04/18 06:20:51;;;;;;;;;;;20.70;61.00;;;;;;4971232;28;1097;-76
2023/04/18 06:23:17;;;;;;;;;;;20.70;61.00;;;;;;4972329;28;898;-74
2023/04/18 06:25:42;;;;;;;;;;;20.70;61.00;;;;;;4971210;28;879;-75
2023/04/18 06:28:07;;;;;;;;;;;20.70;61.00;;;;;;4972194;28;880;-75
2023/04/18 06:30:33;;;;;;;;;;;20.70;61.00;;;;;;4972061;28;1285;-75
2023/04/18 06:32:58;;;;;;;;;;;20.70;61.00;;;;;;4972382;28;1022;-75
2023/04/18 06:35:24;;;;;;;;;;;20.70;61.00;;;;;;4972666;28;828;-75
2023/04/18 06:37:49;;;;;;;;;;;20.80;61.10;;;;;;4969672;28;1523;-75
2023/04/18 06:40:15;;;;;;;;;;;20.80;61.10;;;;;;4971245;28;1971;-72
2023/04/18 06:42:41;;;;;;;;;;;20.80;61.10;;;;;;4972191;28;820;-69
2023/04/18 06:45:06;;;;;;;;;;;20.80;61.10;;;;;;4972955;28;812;-75
2023/04/18 06:47:32;;;;;;;;;;;20.80;61.20;;;;;;4972482;28;810;-73
2023/04/18 06:49:57;;;;;;;;;;;20.80;61.10;;;;;;4959476;28;2039;-71
2023/04/18 06:52:23;;;;;;;;;;;20.80;61.10;;;;;;4971458;28;1504;-71
2023/04/18 06:54:48;;;;;;;;;;;20.90;61.20;;;;;;4970632;28;1266;-71
2023/04/18 06:57:13;;;;;;;;;;;20.90;61.20;;;;;;4971371;28;987;-71
2023/04/18 06:59:40;;;;;;;;;;;20.90;61.20;;;;;;4970256;28;1899;-71
2023/04/18 07:02:06;;;;;;;;;;;20.90;61.10;;;;;;4971553;28;888;-71
2023/04/18 07:04:31;;;;;;;;;;;20.90;61.10;;;;;;4970177;28;853;-71
2023/04/18 07:06:57;;;;;;;;;;;21.00;61.10;;;;;;4971922;28;824;-71
2023/04/18 07:09:22;;;;;;;;;;;21.00;61.10;;;;;;4973270;28;1259;-71
2023/04/18 07:11:49;;;;;;;;;;;21.00;61.10;;;;;;4972251;28;958;-71
2023/04/18 07:14:15;;;;;;;;;;;21.00;61.10;;;;;;4970765;28;1350;-71
2023/04/18 07:16:40;;;;;;;;;;;21.00;61.10;;;;;;4971722;28;1058;-72
2023/04/18 07:19:06;;;;;;;;;;;21.00;61.10;;;;;;4969893;28;1968;-72
2023/04/18 07:21:31;;;;;;;;;;;21.00;61.20;;;;;;4971635;28;892;-72
2023/04/18 07:23:57;;;;;;;;;;;21.00;61.20;;;;;;4971260;28;1458;-71
2023/04/18 07:26:22;;;;;;;;;;;21.00;61.30;;;;;;4969371;28;1839;-72
2023/04/18 07:28:48;;;;;;;;;;;21.00;61.80;;;;;;4971085;28;1373;-72
2023/04/18 07:31:15;;;;;;;;;;;21.00;62.30;;;;;;4971067;28;1064;-72
2023/04/18 07:33:42;;;;;;;;;;;20.90;62.30;;;;;;4971526;28;825;-72
2023/04/18 07:36:07;;;;;;;;;;;20.90;62.50;;;;;;4969774;28;881;-72
2023/04/18 07:38:34;;;;;;;;;;;20.90;62.60;;;;;;4971049;28;1972;-71
2023/04/18 07:41:00;;;;;;;;;;;20.90;62.70;;;;;;4969108;28;1093;-71
2023/04/18 07:43:25;;;;;;;;;;;20.90;62.80;;;;;;4970276;28;1477;-71
2023/04/18 07:45:51;;;;;;;;;;;20.80;62.90;;;;;;4971464;28;864;-71
2023/04/18 07:48:17;;;;;;;;;;;20.80;63.00;;;;;;4969000;28;1453;-71
2023/04/18 07:50:42;;;;;;;;;;;20.80;62.80;;;;;;4970038;28;819;-72
2023/04/18 07:53:08;;;;;;;;;;;20.70;62.60;;;;;;4971248;28;875;-72
2023/04/18 07:55:33;;;;;;;;;;;20.70;62.70;;;;;;4971477;28;1434;-72
2023/04/18 07:57:59;;;;;;;;;;;20.70;62.80;;;;;;4971223;28;974;-71
2023/04/18 08:00:25;;;;;;;;;;;20.70;62.90;;;;;;4959244;28;1910;-72
2023/04/18 08:02:50;;;;;;;;;;;20.60;62.90;;;;;;4971409;28;836;-72
2023/04/18 08:05:17;;;;;;;;;;;20.60;63.00;;;;;;4969838;28;793;-72
2023/04/18 08:07:42;;;;;;;;;;;20.60;63.10;;;;;;4969066;28;955;-72
2023/04/18 08:10:08;;;;;;;;;;;20.60;63.30;;;;;;4970863;28;1238;-71
2023/04/18 08:12:35;;;;;;;;;;;20.60;63.50;;;;;;4971038;28;991;-71
2023/04/18 08:15:01;;;;;;;;;;;20.50;63.70;;;;;;4971131;28;823;-72
2023/04/18 08:17:26;;;;;;;;;;;20.50;63.80;;;;;;4970667;28;911;-71
2023/04/18 08:19:52;;;;;;;;;;;20.50;63.80;;;;;;4970693;28;1980;-71
2023/04/18 08:22:17;;;;;;;;;;;20.50;64.00;;;;;;4969626;28;885;-71
2023/04/18 08:24:42;;;;;;;;;;;20.40;64.00;;;;;;4970986;28;789;-71
2023/04/18 08:27:08;;;;;;;;;;;20.40;64.10;;;;;;4970719;28;816;-71
2023/04/18 08:29:33;;;;;;;;;;;20.40;64.40;;;;;;4970821;28;1361;-71
2023/04/18 08:31:59;;;;;;;;;;;20.40;64.50;;;;;;4970760;28;1383;-72
2023/04/18 08:34:24;;;;;;;;;;;20.40;64.80;;;;;;4970959;28;1570;-72
2023/04/18 08:36:50;;;;;;;;;;;20.30;65.40;;;;;;4971221;28;828;-74
2023/04/18 08:39:15;;;;;;;;;;;20.30;64.80;;;;;;4970199;28;2151;-72
2023/04/18 08:41:41;;;;;;;;;;;20.30;64.80;;;;;;4970623;28;1369;-72
2023/04/18 08:44:07;;;;;;;;;;;20.20;64.80;;;;;;4952698;28;1999;-72
2023/04/18 08:46:36;;;;;;;;;;;20.20;64.90;;;;;;4970082;28;1494;-72
2023/04/18 08:49:05;;;;;;;;;;;20.20;65.00;;;;;;4943621;28;1391;-72
2023/04/18 08:51:33;;;;;;;;;;;20.20;65.10;;;;;;4972628;28;867;-72
2023/04/18 08:54:03;;;;;;;;;;;20.20;65.20;;;;;;4975074;28;876;-73
2023/04/18 08:56:31;;;;;;;;;;;20.20;65.40;;;;;;4973978;28;1332;-72
2023/04/18 08:59:00;;;;;;;;;;;20.20;65.60;;;;;;4972379;28;1903;-72
2023/04/18 09:01:44;;;;;;;;;;;20.10;66.00;;;;;;4974248;28;900;-72
2023/04/18 09:04:09;;;;;;;;;;;20.10;66.20;;;;;;4973843;28;964;-72
2023/04/18 09:06:35;;;;;;;;;;;20.10;66.30;;;;;;4974045;28;855;-72
2023/04/18 09:09:03;;;;;;;;;;;20.10;66.30;;;;;;4972555;28;1297;-73
2023/04/18 09:11:28;;;;;;;;;;;20.00;66.40;;;;;;4987533;28;1161;-72
2023/04/18 09:13:55;;;;;;;;;;;20.10;66.50;;;;;;4972796;28;918;-72
2023/04/18 09:16:21;;;;;;;;;;;20.00;66.40;;;;;;4973681;28;849;-72
2023/04/18 09:19:05;;;;;;;;;;;20.00;66.40;;;;;;4973348;28;1894;-72
2023/04/18 09:21:31;;;;;;;;;;;20.00;66.40;;;;;;4973759;28;866;-72
2023/04/18 09:24:06;;;;;;;;;;;20.00;66.50;;;;;;4972522;28;895;-72
2023/04/18 09:26:33;;;;;;;;;;;20.00;66.50;;;;;;4972547;28;856;-72
2023/04/18 09:28:59;;;;;;;;;;;19.90;66.60;;;;;;4972023;28;1357;-72
2023/04/18 09:31:26;;;;;;;;;;;19.90;66.60;;;;;;4973282;28;833;-72
2023/04/18 09:33:53;;;;;;;;;;;19.90;66.60;;;;;;4972389;28;1516;-72
2023/04/18 09:36:19;;;;;;;;;;;19.90;66.60;;;;;;4972339;28;897;-72
2023/04/18 09:38:45;;;;;;;;;;;19.90;66.70;;;;;;4971915;28;1910;-72
2023/04/18 09:41:10;;;;;;;;;;;19.90;66.80;;;;;;4972082;28;912;-72
2023/04/18 09:43:36;;;;;;;;;;;19.90;66.80;;;;;;4972324;28;821;-73
2023/04/18 09:46:02;;;;;;;;;;;19.90;66.80;;;;;;4972173;28;850;-73
2023/04/18 09:48:28;;;;;;;;;;;19.80;66.90;;;;;;4972995;28;1304;-72
2023/04/18 09:50:53;;;;;;;;;;;19.80;66.90;;;;;;4973261;28;1325;-73
2023/04/18 09:53:19;;;;;;;;;;;19.90;67.00;;;;;;4973697;28;767;-73
2023/04/18 09:55:45;;;;;;;;;;;19.80;67.00;;;;;;4971839;28;863;-72
2023/04/18 09:58:10;;;;;;;;;;;19.80;67.00;;;;;;4971197;28;963;-73
2023/04/18 10:00:36;;;;;;;;;;;19.80;67.10;;;;;;4971766;28;1907;-72
2023/04/18 10:03:04;;;;;;;;;;;19.80;67.10;;;;;;4971813;28;988;-72
2023/04/18 10:05:31;;;;;;;;;;;19.80;67.30;;;;;;4971155;28;856;-73
2023/04/18 10:07:56;;;;;;;;;;;19.80;67.50;;;;;;4970796;28;866;-73
2023/04/18 10:10:22;;;;;;;;;;;19.80;67.50;;;;;;4971426;28;1269;-73
2023/04/18 10:12:49;;;;;;;;;;;19.80;67.60;;;;;;4971727;28;838;-72
2023/04/18 10:15:15;;;;;;;;;;;19.70;67.60;;;;;;4971291;28;868;-72
2023/04/18 10:17:42;;;;;;;;;;;19.70;67.70;;;;;;4971284;28;943;-73
2023/04/18 10:20:09;;;;;;;;;;;19.70;67.70;;;;;;4972723;28;1903;-73
2023/04/18 10:22:34;;;;;;;;;;;19.70;67.70;;;;;;4972685;28;808;-72
2023/04/18 10:25:00;;;;;;;;;;;19.70;67.70;;;;;;4972483;28;893;-72
2023/04/18 10:27:44;;;;;;;;;;;19.70;67.80;;;;;;4972172;28;856;-72
2023/04/18 10:30:10;;;;;;;;;;;19.60;67.70;;;;;;4972499;28;1263;-72
2023/04/18 10:32:35;;;;;;;;;;;19.70;68.00;;;;;;4971181;28;955;-72
2023/04/18 10:35:01;;;;;;;;;;;19.70;68.00;;;;;;4972308;28;1007;-72
2023/04/18 10:37:26;;;;;;;;;;;19.70;67.90;;;;;;4972302;28;846;-72
2023/04/18 10:39:56;;;;;;;;;;;19.70;67.90;;;;;;4972665;28;1907;-72
2023/04/18 10:42:40;;;;;;;;;;;19.70;67.90;;;;;;4973254;28;919;-72
2023/04/18 10:45:18;;;;;;;;;;;19.70;68.00;;;;;;4973142;28;900;-72
2023/04/18 10:47:44;;;;;;;;;;;19.60;67.90;;;;;;4971999;28;909;-72
2023/04/18 10:50:10;;;;;;;;;;;19.60;68.00;;;;;;4972232;28;1260;-72
2023/04/18 10:52:36;;;;;;;;;;;19.60;67.90;;;;;;4972207;28;934;-72
2023/04/18 10:55:21;;;;;;;;;;;19.60;68.20;;;;;;4970847;28;916;-72
2023/04/18 10:57:47;;;;;;;;;;;19.60;68.10;;;;;;4971506;28;1202;-72
2023/04/18 11:00:13;;;;;;;;;;;19.60;68.30;;;;;;4971983;28;1890;-72
2023/04/18 11:02:39;;;;;;;;;;;19.50;68.20;;;;;;4970112;28;1891;-72
2023/04/18 11:05:06;;;;;;;;;;;19.60;68.40;;;;;;4967226;28;2111;-71
2023/04/18 11:07:31;;;;;;;;;;;19.60;67.30;;;;;;4968118;28;1858;-71
2023/04/18 11:09:57;;;;;;;;;;;19.50;64.60;;;;;;4960764;28;1544;-71
2023/04/18 11:12:22;;;;;;;;;;;19.50;63.30;;;;;;4971583;28;1389;-71
2023/04/18 11:14:48;;;;;;;;;;;19.40;62.20;;;;;;4971077;28;1390;-71
2023/04/18 11:17:22;;;;;;;;;;;19.30;61.20;;;;;;4969412;28;878;-71
2023/04/18 11:19:47;;;;;;;;;;;19.30;60.50;;;;;;4971311;28;1891;-71
2023/04/18 11:22:13;;;;;;;;;;;19.20;60.30;;;;;;4971538;28;781;-71
2023/04/18 11:24:39;;;;;;;;;;;19.20;60.00;;;;;;4970372;28;836;-71
2023/04/18 11:27:05;;;;;;;;;;;19.20;60.10;;;;;;4969427;28;867;-71
2023/04/18 11:29:31;;;;;;;;;;;19.10;60.00;;;;;;4969772;28;1266;-70
2023/04/18 11:31:56;;;;;;;;;;;19.10;59.90;;;;;;4969617;28;1394;-70
2023/04/18 11:34:24;;;;;;;;;;;19.00;59.60;;;;;;4970680;28;1561;-70
2023/04/18 11:36:50;;;;;;;;;;;19.00;59.60;;;;;;4965272;28;1456;-72
2023/04/18 11:39:16;;;;;;;;;;;19.00;59.70;;;;;;4953372;28;1960;-72
2023/04/18 11:41:48;;;;;;;;;;;19.00;59.60;;;;;;4969706;28;1461;-72
2023/04/18 11:44:14;;;;;;;;;;;19.00;59.60;;;;;;4969031;28;871;-72
2023/04/18 11:46:40;;;;;;;;;;;18.90;59.60;;;;;;4970968;28;1487;-71
2023/04/18 11:49:06;;;;;;;;;;;18.90;59.50;;;;;;4970579;28;1812;-71
2023/04/18 11:51:33;;;;;;;;;;;18.90;59.40;;;;;;4970139;28;983;-71
2023/04/18 11:53:58;;;;;;;;;;;18.90;59.50;;;;;;4969965;28;859;-71
2023/04/18 11:56:24;;;;;;;;;;;18.80;59.30;;;;;;4970915;28;856;-71
2023/04/18 11:58:49;;;;;;;;;;;18.80;59.30;;;;;;4968549;28;1980;-72
2023/04/18 12:01:18;;;;;;;;;;;18.80;58.90;;;;;;4970991;28;848;-71
2023/04/18 12:03:58;;;;;;;;;;;18.80;58.80;;;;;;4970079;28;863;-71
2023/04/18 12:06:23;;;;;;;;;;;18.70;58.30;;;;;;4969888;28;883;-71
2023/04/18 12:08:49;;;;;;;;;;;18.70;58.20;;;;;;4971017;28;1380;-72
2023/04/18 12:11:18;;;;;;;;;;;18.70;58.30;;;;;;4971205;28;1548;-71
2023/04/18 12:13:44;;;;;;;;;;;18.70;58.10;;;;;;4970493;28;2155;-72
2023/04/18 12:16:11;;;;;;;;;;;18.70;58.20;;;;;;4969847;28;1371;-73
2023/04/18 12:18:36;;;;;;;;;;;18.70;58.40;;;;;;4970250;28;1571;-71
2023/04/18 12:21:03;;;;;;;;;;;18.70;58.40;;;;;;4971965;28;1906;-71
2023/04/18 12:23:36;;;;;;;;;;;18.70;58.60;;;;;;4975238;28;881;-72
2023/04/18 12:26:02;;;;;;;;;;;18.70;58.60;;;;;;4973800;28;1211;-72
2023/04/18 12:28:28;;;;;;;;;;;18.70;58.90;;;;;;4974495;28;1357;-72
2023/04/18 12:30:53;;;;;;;;;;;18.70;59.00;;;;;;4974901;28;778;-72
2023/04/18 12:33:19;;;;;;;;;;;18.70;59.20;;;;;;4974182;28;1380;-72
2023/04/18 12:35:45;;;;;;;;;;;18.70;59.30;;;;;;4974175;28;1170;-72
2023/04/18 12:38:10;;;;;;;;;;;18.70;59.40;;;;;;4974341;28;869;-74
2023/04/18 12:40:37;;;;;;;;;;;18.80;59.50;;;;;;4974270;28;1923;-72
2023/04/18 12:43:02;;;;;;;;;;;18.80;59.60;;;;;;4970426;28;1654;-74
2023/04/18 12:45:28;;;;;;;;;;;18.80;59.70;;;;;;4974362;28;1343;-73
2023/04/18 12:47:53;;;;;;;;;;;18.80;59.70;;;;;;4973246;28;1484;-72
2023/04/18 12:50:19;;;;;;;;;;;18.90;59.80;;;;;;4974499;28;1329;-72
2023/04/18 12:52:45;;;;;;;;;;;18.90;59.80;;;;;;4972297;28;2061;-69
2023/04/18 12:55:11;;;;;;;;;;;18.90;59.90;;;;;;4971311;28;2109;-73
2023/04/18 12:57:36;;;;;;;;;;;18.90;59.90;;;;;;4968239;28;2127;-74
2023/04/18 13:00:05;;;;;;;;;;;18.90;60.00;;;;;;4970907;28;2003;-74
2023/04/18 13:02:30;;;;;;;;;;;18.90;60.00;;;;;;4973891;28;832;-74
2023/04/18 13:04:56;;;;;;;;;;;18.90;60.00;;;;;;4972616;28;1887;-74
2023/04/18 13:07:21;;;;;;;;;;;18.90;60.10;;;;;;4970782;28;1140;-73
2023/04/18 13:09:47;;;;;;;;;;;18.90;60.10;;;;;;4972413;28;1357;-74
2023/04/18 13:12:12;;;;;;;;;;;19.00;60.30;;;;;;4972638;28;1288;-73
2023/04/18 13:14:38;;;;;;;;;;;19.00;60.30;;;;;;4973276;28;1048;-73
2023/04/18 13:17:03;;;;;;;;;;;18.90;60.30;;;;;;4971489;28;2086;-72
2023/04/18 13:19:29;;;;;;;;;;;19.00;60.40;;;;;;4970257;28;2399;-72
2023/04/18 13:21:55;;;;;;;;;;;19.00;60.50;;;;;;4971319;28;1488;-70
2023/04/18 13:24:20;;;;;;;;;;;19.00;60.50;;;;;;4971294;28;1356;-73
2023/04/18 13:26:46;;;;;;;;;;;19.00;60.50;;;;;;4968863;28;1441;-71
2023/04/18 13:29:11;;;;;;;;;;;19.00;60.50;;;;;;4972793;28;1606;-73
2023/04/18 13:31:37;;;;;;;;;;;19.00;61.30;;;;;;4972997;28;1337;-73
2023/04/18 13:34:02;;;;;;;;;;;19.00;60.50;;;;;;4971759;28;1311;-74
2023/04/18 13:36:28;;;;;;;;;;;19.00;60.60;;;;;;4972832;28;1396;-75
2023/04/18 13:38:53;;;;;;;;;;;19.00;60.60;;;;;;4971568;28;1981;-73
2023/04/18 13:41:19;;;;;;;;;;;19.00;60.70;;;;;;4971696;28;1403;-72
2023/04/18 13:43:44;;;;;;;;;;;19.00;60.70;;;;;;4972351;28;1347;-72
2023/04/18 13:46:10;;;;;;;;;;;19.10;60.80;;;;;;4972882;28;1359;-74
2023/04/18 13:48:35;;;;;;;;;;;19.10;60.80;;;;;;4970055;28;2318;-77
2023/04/18 13:51:01;;;;;;;;;;;19.10;60.90;;;;;;4969791;28;2183;-73
2023/04/18 13:53:26;;;;;;;;;;;19.10;60.90;;;;;;4951689;28;1432;-74
2023/04/18 13:55:52;;;;;;;;;;;19.10;60.90;;;;;;4971387;28;1345;-74
2023/04/18 13:58:17;;;;;;;;;;;19.00;60.90;;;;;;4972378;28;1333;-74
2023/04/18 14:00:43;;;;;;;;;;;19.10;61.00;;;;;;4972810;28;1910;-74
2023/04/18 14:03:08;;;;;;;;;;;19.00;61.00;;;;;;4972898;28;859;-74
2023/04/18 14:05:34;;;;;;;;;;;19.00;61.00;;;;;;4973081;28;1085;-73
2023/04/18 14:08:02;;;;;;;;;;;19.00;61.10;;;;;;4969527;28;1044;-74
2023/04/18 14:10:29;;;;;;;;;;;19.00;61.10;;;;;;4972334;28;1277;-74
2023/04/18 14:12:55;;;;;;;;;;;19.00;61.20;;;;;;4971110;28;1231;-73
2023/04/18 14:15:20;;;;;;;;;;;19.00;61.20;;;;;;4972286;28;854;-73
2023/04/18 14:17:45;;;;;;;;;;;19.00;61.30;;;;;;4972076;28;945;-73
2023/04/18 14:20:14;;;;;;;;;;;19.00;61.30;;;;;;4972652;28;1899;-74
2023/04/18 14:22:39;;;;;;;;;;;19.00;61.40;;;;;;4984465;28;2187;-74
2023/04/18 14:25:05;;;;;;;;;;;19.00;61.50;;;;;;4972542;28;1405;-74
2023/04/18 14:27:31;;;;;;;;;;;19.00;61.50;;;;;;4971953;28;1965;-73
2023/04/18 14:29:57;;;;;;;;;;;19.00;62.30;;;;;;4971948;28;1732;-73